Time;durP1;ratioP1;P1;durP2;ratioP2;P2;SDS_P1;SDS_P2;PMS_P1;PMS_P2;Temp;Humidity;BMP_temperature;BMP_pressure;BME280_temperature;BME280_humidity;BME280_pressure;Samples;Min_cycle;Max_cycle;Signal;HPM_P1;HPM_P2
2021/10/14 00:00:22;;;;;;;2.50;0.75;;;;;;;;;;4877071;29;20409;-73
2021/10/14 00:02:50;;;;;;;1.35;0.68;;;;;;;;;;4870979;29;20574;-74
2021/10/14 00:05:17;;;;;;;2.70;0.93;;;;;;;;;;4862355;29;20052;-74
2021/10/14 00:07:44;;;;;;;1.48;0.60;;;;;;;;;;4846628;29;20049;-74
2021/10/14 00:10:12;;;;;;;1.95;0.50;;;;;;;;;;4863433;29;20051;-73
2021/10/14 00:12:39;;;;;;;2.05;0.57;;;;;;;;;;4878048;29;20108;-74
2021/10/14 00:15:07;;;;;;;2.97;0.77;;;;;;;;;;4880049;29;20048;-74
2021/10/14 00:17:34;;;;;;;2.42;1.02;;;;;;;;;;4849114;29;20041;-73
2021/10/14 00:20:02;;;;;;;1.83;0.75;;;;;;;;;;4853708;29;20052;-74
2021/10/14 00:22:29;;;;;;;1.85;0.80;;;;;;;;;;4874690;29;20047;-73
2021/10/14 00:24:56;;;;;;;1.90;0.80;;;;;;;;;;4857984;29;20085;-73
2021/10/14 00:27:24;;;;;;;2.22;0.60;;;;;;;;;;4842878;29;20112;-73
2021/10/14 00:29:51;;;;;;;3.58;0.65;;;;;;;;;;4843027;29;20108;-74
2021/10/14 00:32:19;;;;;;;2.83;0.50;;;;;;;;;;4856460;29;20052;-73
2021/10/14 00:34:46;;;;;;;3.60;0.50;;;;;;;;;;4842363;29;20452;-74
2021/10/14 00:37:13;;;;;;;3.40;0.43;;;;;;;;;;4849500;29;20467;-74
2021/10/14 00:39:40;;;;;;;1.02;0.50;;;;;;;;;;4843706;29;20400;-74
2021/10/14 00:42:08;;;;;;;1.75;0.60;;;;;;;;;;4859224;29;20478;-75
2021/10/14 00:44:43;;;;;;;1.75;0.65;;;;;;;;;;4860689;29;20403;-74
2021/10/14 00:47:10;;;;;;;1.35;0.47;;;;;;;;;;4855349;29;20559;-74
2021/10/14 00:49:38;;;;;;;3.08;0.80;;;;;;;;;;4857042;29;20069;-74
2021/10/14 00:52:05;;;;;;;2.13;0.60;;;;;;;;;;4853574;29;20108;-74
2021/10/14 00:54:32;;;;;;;3.15;0.60;;;;;;;;;;4844217;29;20065;-74
2021/10/14 00:57:00;;;;;;;1.88;0.55;;;;;;;;;;4839998;29;20084;-78
2021/10/14 00:59:28;;;;;;;2.75;0.70;;;;;;;;;;4831327;29;20051;-78
2021/10/14 01:01:55;;;;;;;2.50;1.15;;;;;;;;;;4851307;29;20181;-79
2021/10/14 01:04:23;;;;;;;1.90;0.98;;;;;;;;;;4856274;29;20038;-78
2021/10/14 01:06:50;;;;;;;2.75;0.75;;;;;;;;;;4838785;29;20220;-78
2021/10/14 01:09:18;;;;;;;1.55;0.65;;;;;;;;;;4844062;29;20049;-78
2021/10/14 01:11:45;;;;;;;4.43;0.90;;;;;;;;;;4856382;29;20045;-79
2021/10/14 01:14:12;;;;;;;1.83;0.88;;;;;;;;;;4840464;29;20069;-77
2021/10/14 01:16:44;;;;;;;1.90;0.65;;;;;;;;;;4852732;29;20046;-78
2021/10/14 01:19:12;;;;;;;6.83;1.30;;;;;;;;;;4842607;29;20415;-78
2021/10/14 01:21:40;;;;;;;5.00;1.88;;;;;;;;;;4849346;29;20487;-78
2021/10/14 01:24:09;;;;;;;4.95;2.53;;;;;;;;;;4850330;29;20049;-78
2021/10/14 01:26:38;;;;;;;5.25;2.17;;;;;;;;;;4867991;29;20052;-78
2021/10/14 01:29:06;;;;;;;4.28;2.28;;;;;;;;;;4858250;29;20124;-78
2021/10/14 01:31:33;;;;;;;5.60;2.50;;;;;;;;;;4848229;29;20177;-78
2021/10/14 01:34:01;;;;;;;4.72;2.65;;;;;;;;;;4848258;29;20037;-78
2021/10/14 01:36:29;;;;;;;6.90;3.05;;;;;;;;;;4850508;29;20068;-78
2021/10/14 01:38:56;;;;;;;6.70;4.13;;;;;;;;;;4842432;29;20069;-78
2021/10/14 01:41:23;;;;;;;4.40;2.20;;;;;;;;;;4841140;29;20070;-78
2021/10/14 01:43:51;;;;;;;7.35;4.20;;;;;;;;;;4850333;29;20125;-78
2021/10/14 01:46:18;;;;;;;8.57;4.80;;;;;;;;;;4854021;29;20463;-78
2021/10/14 01:48:45;;;;;;;8.52;4.68;;;;;;;;;;4853816;29;20041;-77
2021/10/14 01:51:13;;;;;;;5.50;3.47;;;;;;;;;;4850467;29;20402;-78
2021/10/14 01:53:40;;;;;;;8.30;3.78;;;;;;;;;;4855139;29;21080;-77
2021/10/14 01:56:07;;;;;;;6.25;3.55;;;;;;;;;;4846120;29;20602;-78
2021/10/14 01:58:35;;;;;;;7.38;4.00;;;;;;;;;;4854289;29;20090;-78
2021/10/14 02:01:02;;;;;;;8.82;4.97;;;;;;;;;;4851415;29;20442;-79
2021/10/14 02:03:30;;;;;;;9.57;4.72;;;;;;;;;;4846675;29;20066;-78
2021/10/14 02:05:57;;;;;;;8.18;4.68;;;;;;;;;;4848482;29;20121;-78
2021/10/14 02:08:24;;;;;;;8.20;4.97;;;;;;;;;;4841092;29;20141;-78
2021/10/14 02:10:52;;;;;;;7.38;4.32;;;;;;;;;;4851658;29;20097;-78
2021/10/14 02:13:19;;;;;;;9.20;3.88;;;;;;;;;;4855280;29;20041;-78
2021/10/14 02:15:46;;;;;;;7.03;3.88;;;;;;;;;;4853180;29;20065;-78
2021/10/14 02:18:14;;;;;;;10.05;5.03;;;;;;;;;;4849509;29;20053;-78
2021/10/14 02:20:41;;;;;;;9.93;3.95;;;;;;;;;;4849558;29;20033;-78
2021/10/14 02:23:08;;;;;;;10.10;4.72;;;;;;;;;;4852019;29;20056;-78
2021/10/14 02:25:37;;;;;;;7.15;4.05;;;;;;;;;;4867100;29;20398;-78
2021/10/14 02:28:04;;;;;;;7.40;3.80;;;;;;;;;;4867981;29;20049;-77
2021/10/14 02:30:32;;;;;;;7.28;4.03;;;;;;;;;;4869875;29;20136;-78
2021/10/14 02:33:00;;;;;;;8.25;4.22;;;;;;;;;;4854229;29;20037;-78
2021/10/14 02:35:27;;;;;;;10.48;4.22;;;;;;;;;;4870173;29;20105;-78
2021/10/14 02:37:54;;;;;;;6.45;3.50;;;;;;;;;;4885106;29;20048;-79
2021/10/14 02:40:22;;;;;;;6.30;3.05;;;;;;;;;;4877841;29;20041;-79
2021/10/14 02:42:49;;;;;;;12.40;4.57;;;;;;;;;;4872931;29;20059;-78
2021/10/14 02:45:16;;;;;;;9.10;5.13;;;;;;;;;;4877294;29;20068;-78
2021/10/14 02:47:44;;;;;;;9.32;4.20;;;;;;;;;;4878999;29;20041;-78
2021/10/14 02:50:11;;;;;;;8.80;4.78;;;;;;;;;;4871214;29;20100;-78
2021/10/14 02:52:39;;;;;;;7.32;3.70;;;;;;;;;;4867607;29;20098;-79
2021/10/14 02:55:07;;;;;;;8.43;4.03;;;;;;;;;;4874014;29;20041;-78
2021/10/14 02:57:35;;;;;;;10.82;5.72;;;;;;;;;;4876188;29;20482;-78
2021/10/14 03:00:04;;;;;;;9.93;4.55;;;;;;;;;;4875212;29;20045;-78
2021/10/14 03:02:31;;;;;;;9.82;4.07;;;;;;;;;;4874103;29;20069;-79
2021/10/14 03:04:58;;;;;;;10.10;5.15;;;;;;;;;;4873233;29;20048;-78
2021/10/14 03:07:26;;;;;;;11.45;5.18;;;;;;;;;;4858177;29;20486;-78
2021/10/14 03:09:53;;;;;;;10.20;4.85;;;;;;;;;;4843739;29;20413;-78
2021/10/14 03:12:20;;;;;;;8.23;4.38;;;;;;;;;;4857543;29;20163;-78
2021/10/14 03:14:48;;;;;;;11.02;5.47;;;;;;;;;;4875400;29;20431;-78
2021/10/14 03:17:15;;;;;;;11.70;6.55;;;;;;;;;;4854641;29;20048;-78
2021/10/14 03:19:42;;;;;;;13.73;6.55;;;;;;;;;;4877284;29;20112;-78
2021/10/14 03:22:10;;;;;;;11.98;5.75;;;;;;;;;;4874373;29;20045;-78
2021/10/14 03:24:37;;;;;;;10.90;5.85;;;;;;;;;;4869785;29;20132;-78
2021/10/14 03:27:04;;;;;;;14.98;6.30;;;;;;;;;;4876544;29;20081;-78
2021/10/14 03:29:32;;;;;;;10.35;5.38;;;;;;;;;;4860345;29;20078;-78
2021/10/14 03:31:59;;;;;;;10.32;6.13;;;;;;;;;;4872275;29;20045;-78
2021/10/14 03:34:26;;;;;;;13.73;6.97;;;;;;;;;;4846448;29;20132;-78
2021/10/14 03:36:54;;;;;;;13.30;7.60;;;;;;;;;;4870379;29;20120;-78
2021/10/14 03:39:21;;;;;;;12.52;6.30;;;;;;;;;;4872653;29;20417;-78
2021/10/14 03:41:48;;;;;;;10.35;5.53;;;;;;;;;;4874203;29;20064;-78
2021/10/14 03:44:17;;;;;;;12.07;4.60;;;;;;;;;;4860093;29;20093;-78
2021/10/14 03:46:44;;;;;;;8.38;4.35;;;;;;;;;;4871665;29;20141;-78
2021/10/14 03:49:12;;;;;;;7.07;3.63;;;;;;;;;;4858885;29;20518;-79
2021/10/14 03:51:39;;;;;;;7.57;3.55;;;;;;;;;;4873020;29;20041;-78
2021/10/14 03:54:07;;;;;;;5.47;2.67;;;;;;;;;;4872171;29;20045;-79
2021/10/14 03:56:34;;;;;;;5.97;3.05;;;;;;;;;;4874640;29;20073;-78
2021/10/14 03:59:01;;;;;;;6.97;3.17;;;;;;;;;;4858325;29;20089;-79
2021/10/14 04:01:29;;;;;;;10.38;4.90;;;;;;;;;;4874142;29;20131;-78
2021/10/14 04:03:56;;;;;;;10.38;5.43;;;;;;;;;;4872252;29;20045;-78
2021/10/14 04:06:23;;;;;;;7.47;4.53;;;;;;;;;;4875079;29;20128;-78
2021/10/14 04:08:51;;;;;;;6.88;3.50;;;;;;;;;;4857862;29;20108;-79
2021/10/14 04:11:18;;;;;;;7.82;3.88;;;;;;;;;;4879987;29;20080;-78
2021/10/14 04:13:45;;;;;;;6.05;3.05;;;;;;;;;;4873578;29;20037;-78
2021/10/14 04:16:13;;;;;;;7.00;3.90;;;;;;;;;;4867529;29;20137;-78
2021/10/14 04:18:40;;;;;;;9.23;4.05;;;;;;;;;;4873511;29;20112;-78
2021/10/14 04:21:07;;;;;;;9.32;3.50;;;;;;;;;;4851640;29;20034;-78
2021/10/14 04:23:35;;;;;;;6.97;4.30;;;;;;;;;;4868035;29;20132;-78
2021/10/14 04:26:02;;;;;;;8.10;4.25;;;;;;;;;;4875890;29;20083;-78
2021/10/14 04:28:29;;;;;;;9.05;4.45;;;;;;;;;;4859671;29;20226;-79
2021/10/14 04:30:57;;;;;;;7.40;4.20;;;;;;;;;;4855704;29;20045;-78
2021/10/14 04:33:25;;;;;;;9.05;5.07;;;;;;;;;;4864966;29;20125;-78
2021/10/14 04:35:52;;;;;;;8.40;5.65;;;;;;;;;;4871580;29;20068;-78
2021/10/14 04:38:20;;;;;;;9.63;5.10;;;;;;;;;;4861494;29;20487;-78
2021/10/14 04:40:47;;;;;;;10.15;5.80;;;;;;;;;;4858207;29;20479;-78
2021/10/14 04:43:14;;;;;;;10.35;5.82;;;;;;;;;;4854092;29;20055;-78
2021/10/14 04:45:42;;;;;;;9.02;5.53;;;;;;;;;;4856288;29;20051;-78
2021/10/14 04:48:10;;;;;;;7.05;4.75;;;;;;;;;;4873714;29;20101;-78
2021/10/14 04:50:37;;;;;;;9.48;4.65;;;;;;;;;;4876813;29;20128;-78
2021/10/14 04:53:04;;;;;;;9.45;4.70;;;;;;;;;;4871725;29;20049;-78
2021/10/14 04:55:31;;;;;;;8.75;4.53;;;;;;;;;;4858776;29;20060;-78
2021/10/14 04:58:02;;;;;;;7.47;3.95;;;;;;;;;;4875212;29;20116;-78
2021/10/14 05:00:29;;;;;;;8.45;5.20;;;;;;;;;;4868236;29;20435;-78
2021/10/14 05:02:57;;;;;;;6.70;4.03;;;;;;;;;;4870809;29;20494;-78
2021/10/14 05:05:24;;;;;;;7.10;4.47;;;;;;;;;;4858288;29;20123;-78
2021/10/14 05:07:52;;;;;;;7.25;4.47;;;;;;;;;;4875528;29;20089;-78
2021/10/14 05:10:19;;;;;;;7.30;4.40;;;;;;;;;;4850229;29;20045;-78
2021/10/14 05:12:47;;;;;;;8.57;6.03;;;;;;;;;;4852597;29;20459;-78
2021/10/14 05:15:14;;;;;;;8.30;5.20;;;;;;;;;;4872493;29;20045;-79
2021/10/14 05:17:41;;;;;;;6.70;4.35;;;;;;;;;;4870257;29;20556;-78
2021/10/14 05:20:09;;;;;;;7.80;4.28;;;;;;;;;;4856883;29;20066;-78
2021/10/14 05:22:36;;;;;;;9.07;6.40;;;;;;;;;;4871127;29;20041;-78
2021/10/14 05:25:04;;;;;;;9.45;5.45;;;;;;;;;;4869802;29;20053;-78
2021/10/14 05:27:32;;;;;;;7.50;4.68;;;;;;;;;;4875592;29;20136;-78
2021/10/14 05:29:59;;;;;;;7.60;4.00;;;;;;;;;;4851872;29;20042;-79
2021/10/14 05:32:26;;;;;;;8.70;4.32;;;;;;;;;;4869970;29;20049;-78
2021/10/14 05:34:54;;;;;;;7.47;4.18;;;;;;;;;;4869920;29;20434;-78
2021/10/14 05:37:21;;;;;;;7.38;4.07;;;;;;;;;;4856302;29;20363;-79
2021/10/14 05:39:48;;;;;;;8.00;4.03;;;;;;;;;;4868716;29;20083;-79
2021/10/14 05:42:16;;;;;;;7.32;3.45;;;;;;;;;;4881227;29;20069;-79
2021/10/14 05:44:43;;;;;;;6.05;3.17;;;;;;;;;;4871540;29;20405;-79
2021/10/14 05:47:11;;;;;;;6.30;3.35;;;;;;;;;;4858302;29;20073;-79
2021/10/14 05:49:38;;;;;;;6.43;3.85;;;;;;;;;;4866465;29;20098;-79
2021/10/14 05:52:06;;;;;;;6.68;3.22;;;;;;;;;;4865132;29;20071;-79
2021/10/14 05:54:33;;;;;;;7.38;4.40;;;;;;;;;;4872935;29;20128;-79
2021/10/14 05:57:01;;;;;;;7.88;4.07;;;;;;;;;;4877199;29;20088;-79
2021/10/14 05:59:28;;;;;;;6.25;3.10;;;;;;;;;;4877836;29;20064;-75
2021/10/14 06:01:56;;;;;;;6.10;3.80;;;;;;;;;;4862662;29;20060;-75
2021/10/14 06:04:24;;;;;;;7.90;3.47;;;;;;;;;;4857733;29;20374;-74
2021/10/14 06:06:51;;;;;;;6.18;4.05;;;;;;;;;;4876589;29;20550;-75
2021/10/14 06:09:18;;;;;;;7.70;4.53;;;;;;;;;;4862264;29;20048;-74
2021/10/14 06:11:46;;;;;;;8.50;5.60;;;;;;;;;;4861125;29;20045;-74
2021/10/14 06:14:15;;;;;;;8.02;5.13;;;;;;;;;;4882495;29;20794;-74
2021/10/14 06:16:42;;;;;;;9.90;4.75;;;;;;;;;;4865091;29;20124;-74
2021/10/14 06:19:09;;;;;;;6.28;4.32;;;;;;;;;;4862974;29;20049;-74
2021/10/14 06:21:37;;;;;;;8.35;4.47;;;;;;;;;;4862710;29;20463;-74
2021/10/14 06:24:05;;;;;;;4.95;2.70;;;;;;;;;;4847581;29;20136;-74
2021/10/14 06:26:32;;;;;;;7.35;4.05;;;;;;;;;;4884617;29;20505;-74
2021/10/14 06:29:00;;;;;;;5.80;3.35;;;;;;;;;;4854497;29;20041;-75
2021/10/14 06:31:27;;;;;;;6.95;3.78;;;;;;;;;;4856738;29;20037;-74
2021/10/14 06:33:54;;;;;;;7.80;4.13;;;;;;;;;;4863015;29;20128;-74
2021/10/14 06:36:22;;;;;;;5.72;3.33;;;;;;;;;;4874309;29;20053;-74
2021/10/14 06:38:50;;;;;;;8.23;4.95;;;;;;;;;;4867374;29;20119;-74
2021/10/14 06:41:17;;;;;;;6.93;4.22;;;;;;;;;;4879428;29;20168;-74
2021/10/14 06:43:44;;;;;;;7.43;4.45;;;;;;;;;;4861239;29;20072;-75
2021/10/14 06:46:12;;;;;;;9.85;4.32;;;;;;;;;;4862469;29;20833;-75
2021/10/14 06:48:39;;;;;;;5.20;3.00;;;;;;;;;;4875254;29;20045;-74
2021/10/14 06:51:07;;;;;;;6.68;4.07;;;;;;;;;;4880429;29;20061;-74
2021/10/14 06:53:34;;;;;;;9.75;5.38;;;;;;;;;;4861023;29;20068;-74
2021/10/14 06:56:01;;;;;;;14.07;6.55;;;;;;;;;;4864537;29;20073;-74
2021/10/14 06:58:29;;;;;;;10.20;5.82;;;;;;;;;;4882645;29;20071;-74
2021/10/14 07:00:56;;;;;;;11.68;6.03;;;;;;;;;;4862988;29;20160;-74
2021/10/14 07:03:24;;;;;;;11.90;6.28;;;;;;;;;;4863227;29;20414;-75
2021/10/14 07:05:51;;;;;;;11.05;5.45;;;;;;;;;;4874982;29;20059;-74
2021/10/14 07:08:18;;;;;;;7.90;5.07;;;;;;;;;;4879362;29;20048;-74
2021/10/14 07:10:46;;;;;;;10.75;6.03;;;;;;;;;;4866562;29;20045;-75
2021/10/14 07:13:14;;;;;;;10.18;5.15;;;;;;;;;;4876419;29;20123;-74
2021/10/14 07:15:42;;;;;;;10.55;6.00;;;;;;;;;;4861580;29;20060;-74
2021/10/14 07:18:09;;;;;;;12.88;6.75;;;;;;;;;;4861559;29;20446;-73
2021/10/14 07:20:37;;;;;;;11.75;6.43;;;;;;;;;;4873316;29;20056;-73
2021/10/14 07:23:11;;;;;;;12.57;6.68;;;;;;;;;;4859144;29;20080;-73
2021/10/14 07:25:40;;;;;;;10.95;6.18;;;;;;;;;;4856097;29;20175;-74
2021/10/14 07:28:07;;;;;;;12.77;5.88;;;;;;;;;;4876590;29;20551;-74
2021/10/14 07:30:36;;;;;;;11.88;6.13;;;;;;;;;;4875264;29;20444;-74
2021/10/14 07:33:04;;;;;;;13.23;6.15;;;;;;;;;;4856597;29;20561;-74
2021/10/14 07:35:35;;;;;;;12.52;6.30;;;;;;;;;;4872184;29;20051;-74
2021/10/14 07:38:03;;;;;;;14.55;7.32;;;;;;;;;;4857507;29;21262;-75
2021/10/14 07:40:32;;;;;;;13.60;6.72;;;;;;;;;;4874340;29;20048;-73
2021/10/14 07:43:03;;;;;;;15.93;9.38;;;;;;;;;;4876968;29;20548;-76
2021/10/14 07:45:30;;;;;;;19.20;8.63;;;;;;;;;;4866836;29;20041;-79
2021/10/14 07:47:58;;;;;;;19.83;11.05;;;;;;;;;;4848680;29;20073;-74
2021/10/14 07:50:26;;;;;;;20.25;10.25;;;;;;;;;;4879711;29;20101;-74
2021/10/14 07:52:53;;;;;;;16.75;10.18;;;;;;;;;;4861503;29;20562;-75
2021/10/14 07:55:20;;;;;;;17.13;9.32;;;;;;;;;;4878756;29;20092;-75
2021/10/14 07:57:48;;;;;;;16.17;7.78;;;;;;;;;;4863323;29;20124;-74
2021/10/14 08:00:15;;;;;;;16.52;9.00;;;;;;;;;;4892098;29;20469;-75
2021/10/14 08:02:47;;;;;;;19.30;9.77;;;;;;;;;;4863757;29;20052;-74
2021/10/14 08:05:17;;;;;;;15.32;9.45;;;;;;;;;;4879520;29;20398;-74
2021/10/14 08:07:46;;;;;;;13.32;7.30;;;;;;;;;;4866478;29;20068;-74
2021/10/14 08:10:13;;;;;;;13.80;7.80;;;;;;;;;;4862683;29;20087;-74
2021/10/14 08:12:42;;;;;;;13.02;7.80;;;;;;;;;;4896139;29;20466;-73
2021/10/14 08:15:14;;;;;;;12.60;7.13;;;;;;;;;;4868705;29;20056;-74
2021/10/14 08:17:41;;;;;;;13.85;7.75;;;;;;;;;;4850018;29;20045;-75
2021/10/14 08:20:09;;;;;;;15.23;8.20;;;;;;;;;;4856386;29;20045;-76
2021/10/14 08:22:36;;;;;;;16.55;10.20;;;;;;;;;;4879992;29;20060;-76
2021/10/14 08:25:07;;;;;;;17.27;10.18;;;;;;;;;;4880000;29;20132;-75
2021/10/14 08:27:35;;;;;;;14.73;9.05;;;;;;;;;;4863732;29;20075;-77
2021/10/14 08:30:05;;;;;;;12.43;7.25;;;;;;;;;;4887695;29;20439;-77
2021/10/14 08:32:33;;;;;;;12.73;6.38;;;;;;;;;;4863422;29;20112;-77
2021/10/14 08:35:00;;;;;;;8.45;5.13;;;;;;;;;;4871320;29;20072;-76
2021/10/14 08:37:29;;;;;;;11.77;6.28;;;;;;;;;;4867946;29;20049;-76
2021/10/14 08:40:15;;;;;;;10.93;6.25;;;;;;;;;;4858054;29;20037;-77
2021/10/14 08:42:42;;;;;;;11.15;6.07;;;;;;;;;;4869807;29;20367;-78
2021/10/14 08:45:11;;;;;;;17.10;9.43;;;;;;;;;;4879102;29;20126;-75
2021/10/14 08:47:39;;;;;;;15.73;9.73;;;;;;;;;;4861972;29;20487;-75
2021/10/14 08:50:08;;;;;;;18.35;10.77;;;;;;;;;;4862641;29;20077;-75
2021/10/14 08:52:35;;;;;;;13.32;8.73;;;;;;;;;;4882440;29;20069;-75
2021/10/14 08:55:03;;;;;;;15.73;10.18;;;;;;;;;;4875736;29;20045;-75
2021/10/14 08:57:30;;;;;;;14.60;8.57;;;;;;;;;;4870306;29;20040;-75
2021/10/14 08:59:57;;;;;;;11.07;7.18;;;;;;;;;;4863565;29;20465;-75
2021/10/14 09:02:25;;;;;;;11.73;6.78;;;;;;;;;;4886819;29;20044;-75
2021/10/14 09:04:55;;;;;;;13.82;8.70;;;;;;;;;;4885604;29;20087;-75
2021/10/14 09:07:23;;;;;;;13.23;7.90;;;;;;;;;;4864640;29;20422;-75
2021/10/14 09:09:51;;;;;;;12.82;8.18;;;;;;;;;;4886881;29;20100;-74
2021/10/14 09:12:19;;;;;;;12.27;7.90;;;;;;;;;;4891713;29;20141;-75
2021/10/14 09:14:54;;;;;;;14.63;8.80;;;;;;;;;;4867722;29;20108;-75
2021/10/14 09:17:37;;;;;;;13.70;8.65;;;;;;;;;;4888146;29;20075;-75
2021/10/14 09:20:23;;;;;;;14.18;7.63;;;;;;;;;;4848720;29;20045;-75
2021/10/14 09:22:53;;;;;;;13.88;7.45;;;;;;;;;;4869810;29;20049;-75
2021/10/14 09:25:27;;;;;;;12.88;8.07;;;;;;;;;;4868415;29;20053;-75
2021/10/14 09:28:05;;;;;;;11.98;7.68;;;;;;;;;;4867712;29;20052;-75
2021/10/14 09:30:32;;;;;;;11.52;6.60;;;;;;;;;;4877988;29;20049;-75
2021/10/14 09:32:59;;;;;;;9.82;5.93;;;;;;;;;;4870097;29;20048;-75
2021/10/14 09:35:27;;;;;;;12.60;6.85;;;;;;;;;;4882087;29;20041;-75
2021/10/14 09:37:54;;;;;;;12.48;6.82;;;;;;;;;;4862960;29;20072;-75
2021/10/14 09:40:26;;;;;;;11.45;6.38;;;;;;;;;;4847953;29;20466;-75
2021/10/14 09:42:59;;;;;;;11.23;6.38;;;;;;;;;;4861516;29;20045;-76
2021/10/14 09:45:26;;;;;;;;;;;;;;;;;;4873722;29;20048;-74
2021/10/14 09:48:08;;;;;;;14.20;8.73;;;;;;;;;;4863428;29;19970;-74
2021/10/14 09:50:35;;;;;;;11.95;7.68;;;;;;;;;;4881230;29;20045;-74
2021/10/14 09:53:04;;;;;;;11.98;6.68;;;;;;;;;;4878530;29;20054;-73
2021/10/14 09:55:31;;;;;;;14.40;9.40;;;;;;;;;;4881487;29;20060;-74
2021/10/14 09:57:59;;;;;;;13.68;9.40;;;;;;;;;;4865369;29;20068;-74
2021/10/14 10:00:28;;;;;;;12.50;7.68;;;;;;;;;;4871740;29;20494;-74
2021/10/14 10:02:59;;;;;;;13.15;7.65;;;;;;;;;;4862071;29;20039;-73
2021/10/14 10:05:32;;;;;;;13.30;7.57;;;;;;;;;;4877897;29;20076;-74
2021/10/14 10:08:00;;;;;;;12.82;7.80;;;;;;;;;;4882797;29;20052;-73
2021/10/14 10:10:28;;;;;;;16.65;10.98;;;;;;;;;;4864111;29;20455;-76
2021/10/14 10:12:57;;;;;;;15.10;9.95;;;;;;;;;;4850304;29;20529;-74
2021/10/14 10:15:40;;;;;;;16.70;10.88;;;;;;;;;;4861093;29;20037;-74
2021/10/14 10:18:26;;;;;;;15.35;9.48;;;;;;;;;;4862433;29;20037;-73
2021/10/14 10:20:54;;;;;;;15.25;8.40;;;;;;;;;;4877659;29;20041;-73
2021/10/14 10:23:40;;;;;;;13.00;8.57;;;;;;;;;;4882568;29;20553;-73
2021/10/14 10:29:14;;;;;;;20.83;10.57;;;;;;;;;;4884365;29;20041;-78
2021/10/14 10:31:56;;;;;;;14.27;9.05;;;;;;;;;;4862007;29;20084;-77
2021/10/14 10:37:17;;;;;;;15.05;8.85;;;;;;;;;;4861750;29;20074;-76
2021/10/14 10:39:47;;;;;;;15.25;8.30;;;;;;;;;;4846140;29;20049;-77
2021/10/14 10:42:23;;;;;;;15.85;9.88;;;;;;;;;;4876611;29;20053;-73
2021/10/14 10:44:51;;;;;;;23.77;12.13;;;;;;;;;;4875563;29;20044;-74
2021/10/14 10:47:36;;;;;;;16.95;10.73;;;;;;;;;;4877291;29;20382;-73
2021/10/14 10:50:04;;;;;;;18.30;11.95;;;;;;;;;;4860471;29;20610;-73
2021/10/14 10:52:33;;;;;;;19.73;12.15;;;;;;;;;;4862030;29;20079;-73
2021/10/14 10:55:00;;;;;;;17.10;10.90;;;;;;;;;;4851906;29;20037;-78
2021/10/14 10:57:58;;;;;;;19.25;11.10;;;;;;;;;;4865356;29;20092;-80
2021/10/14 11:00:26;;;;;;;15.38;10.27;;;;;;;;;;4840606;29;20443;-77
2021/10/14 11:03:07;;;;;;;20.92;12.95;;;;;;;;;;4851297;29;20073;-79
2021/10/14 11:05:44;;;;;;;18.20;11.68;;;;;;;;;;4867596;29;20078;-77
2021/10/14 11:08:13;;;;;;;16.65;11.20;;;;;;;;;;4880746;29;20108;-73
2021/10/14 11:10:42;;;;;;;14.35;8.98;;;;;;;;;;4884712;29;20048;-73
2021/10/14 11:13:09;;;;;;;13.25;8.70;;;;;;;;;;4881472;29;20581;-74
2021/10/14 11:15:51;;;;;;;17.42;9.80;;;;;;;;;;4880300;29;20104;-74
2021/10/14 11:18:19;;;;;;;16.73;10.18;;;;;;;;;;4863992;29;20048;-74
2021/10/14 11:20:54;;;;;;;16.67;10.88;;;;;;;;;;4867757;29;20120;-74
2021/10/14 11:23:23;;;;;;;20.13;12.63;;;;;;;;;;4856023;29;20049;-78
2021/10/14 11:26:01;;;;;;;19.33;13.25;;;;;;;;;;4871966;29;20148;-73
2021/10/14 11:28:28;;;;;;;17.73;12.43;;;;;;;;;;4868559;29;20049;-74
2021/10/14 11:31:00;;;;;;;15.32;10.93;;;;;;;;;;4847412;29;20037;-73
2021/10/14 11:33:34;;;;;;;18.17;11.82;;;;;;;;;;4886718;29;20132;-73
2021/10/14 11:36:03;;;;;;;16.38;11.07;;;;;;;;;;4858449;29;20053;-73
2021/10/14 11:38:32;;;;;;;17.10;10.70;;;;;;;;;;4843029;29;20060;-73
2021/10/14 11:41:00;;;;;;;12.98;9.52;;;;;;;;;;4867772;29;20049;-73
2021/10/14 11:43:29;;;;;;;16.48;10.82;;;;;;;;;;4880385;29;20061;-74
2021/10/14 11:45:57;;;;;;;16.58;11.55;;;;;;;;;;4855191;29;20054;-73
2021/10/14 11:48:29;;;;;;;18.90;12.52;;;;;;;;;;4882205;29;20040;-73
2021/10/14 11:51:15;;;;;;;19.80;12.70;;;;;;;;;;4867658;29;20124;-73
2021/10/14 11:53:54;;;;;;;18.63;12.80;;;;;;;;;;4876799;29;20296;-73
2021/10/14 11:56:21;;;;;;;17.88;12.40;;;;;;;;;;4877247;29;20049;-73
2021/10/14 11:58:48;;;;;;;22.77;14.35;;;;;;;;;;4859987;29;20052;-73
2021/10/14 12:01:18;;;;;;;15.00;10.90;;;;;;;;;;4845194;29;20052;-73
2021/10/14 12:03:45;;;;;;;15.77;10.68;;;;;;;;;;4844879;29;20072;-73
2021/10/14 12:06:12;;;;;;;13.05;9.80;;;;;;;;;;4858959;29;20121;-73
2021/10/14 12:08:40;;;;;;;12.05;8.43;;;;;;;;;;4875628;29;20462;-73
2021/10/14 12:11:17;;;;;;;11.30;7.75;;;;;;;;;;4874305;29;20543;-73
2021/10/14 12:13:55;;;;;;;11.48;7.65;;;;;;;;;;4876755;29;20049;-73
2021/10/14 12:16:23;;;;;;;12.15;8.30;;;;;;;;;;4861247;29;20045;-73
2021/10/14 12:18:51;;;;;;;12.95;8.80;;;;;;;;;;4859568;29;20044;-73
2021/10/14 12:21:31;;;;;;;12.43;8.15;;;;;;;;;;4861462;29;20538;-73
2021/10/14 12:24:21;;;;;;;11.55;8.52;;;;;;;;;;4859909;29;20509;-73
2021/10/14 12:26:49;;;;;;;11.02;7.55;;;;;;;;;;4874746;29;20048;-73
2021/10/14 12:29:21;;;;;;;10.32;7.95;;;;;;;;;;4876632;29;20055;-73
2021/10/14 12:31:49;;;;;;;11.75;8.02;;;;;;;;;;4878272;29;20053;-74
2021/10/14 12:34:16;;;;;;;10.68;8.40;;;;;;;;;;4881138;29;20045;-73
2021/10/14 12:36:45;;;;;;;12.20;7.55;;;;;;;;;;4874516;29;20040;-74
2021/10/14 12:39:24;;;;;;;13.88;8.23;;;;;;;;;;4874564;29;20105;-73
2021/10/14 12:41:53;;;;;;;13.73;9.00;;;;;;;;;;4865528;29;20049;-73
2021/10/14 12:44:25;;;;;;;13.88;8.88;;;;;;;;;;4872940;29;20569;-73
2021/10/14 12:47:01;;;;;;;11.65;8.23;;;;;;;;;;4872296;29;20439;-73
2021/10/14 12:49:38;;;;;;;12.45;8.18;;;;;;;;;;4877989;29;20053;-73
2021/10/14 12:52:17;;;;;;;12.13;8.95;;;;;;;;;;4879209;29;20128;-74
2021/10/14 12:54:45;;;;;;;12.57;9.57;;;;;;;;;;4863063;29;20045;-73
2021/10/14 12:57:12;;;;;;;14.93;11.32;;;;;;;;;;4862925;29;20072;-73
2021/10/14 12:59:39;;;;;;;13.48;9.15;;;;;;;;;;4878832;29;20093;-73
2021/10/14 13:02:07;;;;;;;13.43;10.18;;;;;;;;;;4878283;29;20045;-73
2021/10/14 13:04:35;;;;;;;17.63;12.85;;;;;;;;;;4877627;29;20037;-73
2021/10/14 13:07:02;;;;;;;18.80;13.55;;;;;;;;;;4862094;29;20033;-74
2021/10/14 13:09:30;;;;;;;19.85;13.90;;;;;;;;;;4866040;29;20047;-73
2021/10/14 13:11:57;;;;;;;16.55;12.57;;;;;;;;;;4850247;29;20144;-74
2021/10/14 13:14:25;;;;;;;16.98;12.88;;;;;;;;;;4849219;29;20057;-74
2021/10/14 13:16:52;;;;;;;16.20;10.88;;;;;;;;;;4863420;29;20098;-74
2021/10/14 13:19:21;;;;;;;17.60;12.45;;;;;;;;;;4877988;29;20091;-73
2021/10/14 13:21:49;;;;;;;13.38;9.85;;;;;;;;;;4831952;29;20045;-74
2021/10/14 13:24:17;;;;;;;13.60;11.15;;;;;;;;;;4860690;29;20060;-73
2021/10/14 13:26:45;;;;;;;13.10;9.88;;;;;;;;;;4877935;29;20057;-74
2021/10/14 13:29:12;;;;;;;12.90;9.40;;;;;;;;;;4880921;29;20036;-74
2021/10/14 13:31:40;;;;;;;12.48;9.32;;;;;;;;;;4863632;29;20123;-75
2021/10/14 13:34:08;;;;;;;13.68;9.75;;;;;;;;;;4867965;29;20059;-77
2021/10/14 13:36:35;;;;;;;12.65;10.25;;;;;;;;;;4869364;29;20061;-75
2021/10/14 13:39:03;;;;;;;15.57;10.00;;;;;;;;;;4879103;29;20037;-75
2021/10/14 13:41:31;;;;;;;12.23;9.05;;;;;;;;;;4842521;29;20068;-74
2021/10/14 13:44:04;;;;;;;12.52;9.00;;;;;;;;;;4862149;29;20044;-74
2021/10/14 13:46:34;;;;;;;13.23;9.43;;;;;;;;;;4865717;29;20041;-74
2021/10/14 13:49:02;;;;;;;12.77;9.50;;;;;;;;;;4861824;29;20049;-74
2021/10/14 13:51:30;;;;;;;11.05;7.90;;;;;;;;;;4861998;29;20056;-74
2021/10/14 13:53:57;;;;;;;9.90;7.00;;;;;;;;;;4871914;29;20148;-74
2021/10/14 13:56:25;;;;;;;9.50;7.25;;;;;;;;;;4873428;29;20183;-74
2021/10/14 13:58:52;;;;;;;10.93;7.22;;;;;;;;;;4891862;29;20047;-74
2021/10/14 14:01:19;;;;;;;10.68;7.53;;;;;;;;;;4867402;29;20051;-74
2021/10/14 14:03:55;;;;;;;12.55;6.97;;;;;;;;;;4852578;29;20060;-79
2021/10/14 14:06:25;;;;;;;9.98;7.10;;;;;;;;;;4846268;29;20550;-74
2021/10/14 14:08:53;;;;;;;11.40;7.85;;;;;;;;;;4878134;29;20049;-74
2021/10/14 14:11:20;;;;;;;9.95;7.15;;;;;;;;;;4846201;29;20121;-75
2021/10/14 14:13:48;;;;;;;10.60;6.40;;;;;;;;;;4864967;29;20052;-74
2021/10/14 14:16:15;;;;;;;9.43;6.68;;;;;;;;;;4877762;29;20120;-73
2021/10/14 14:18:42;;;;;;;8.80;6.22;;;;;;;;;;4878660;29;20079;-75
2021/10/14 14:21:12;;;;;;;9.20;6.03;;;;;;;;;;4850402;29;20045;-75
2021/10/14 14:23:39;;;;;;;8.60;5.38;;;;;;;;;;4877098;29;20041;-73
2021/10/14 14:26:07;;;;;;;7.95;5.45;;;;;;;;;;4859951;29;20510;-73
2021/10/14 14:28:34;;;;;;;6.97;4.43;;;;;;;;;;4857905;29;20085;-74
2021/10/14 14:31:01;;;;;;;6.45;3.90;;;;;;;;;;4846395;29;20128;-73
2021/10/14 14:33:29;;;;;;;7.22;4.82;;;;;;;;;;4862496;29;20055;-73
2021/10/14 14:35:58;;;;;;;6.13;3.97;;;;;;;;;;4861151;29;20053;-73
2021/10/14 14:38:25;;;;;;;8.82;4.93;;;;;;;;;;4861515;29;20065;-72
2021/10/14 14:40:53;;;;;;;8.77;6.03;;;;;;;;;;4846049;29;20053;-73
2021/10/14 14:43:20;;;;;;;9.15;6.03;;;;;;;;;;4861110;29;20098;-74
2021/10/14 14:45:49;;;;;;;8.15;4.78;;;;;;;;;;4846047;29;20097;-74
2021/10/14 14:48:17;;;;;;;6.72;4.75;;;;;;;;;;4861447;29;20856;-74